Time;durP1;ratioP1;P1;durP2;ratioP2;P2;SDS_P1;SDS_P2;PMS_P1;PMS_P2;Temp;Humidity;BMP_temperature;BMP_pressure;BME280_temperature;BME280_humidity;BME280_pressure;Samples;Min_cycle;Max_cycle;Signal;HPM_P1;HPM_P2
2023/03/02 00:01:07;;;;;;;52.92;23.02;;;2.80;99.90;;;;;;5028988;28;20443;-63
2023/03/02 00:03:36;;;;;;;54.97;24.42;;;2.80;99.90;;;;;;5034120;28;20048;-63
2023/03/02 00:06:02;;;;;;;56.70;24.73;;;2.80;99.90;;;;;;5040917;28;20045;-63
2023/03/02 00:08:28;;;;;;;59.05;24.25;;;2.80;99.90;;;;;;5045372;28;20057;-63
2023/03/02 00:10:56;;;;;;;56.63;24.52;;;2.80;99.90;;;;;;5050850;28;20114;-64
2023/03/02 00:13:22;;;;;;;58.47;24.00;;;2.80;99.90;;;;;;5049040;28;20048;-65
2023/03/02 00:15:48;;;;;;;59.58;25.25;;;2.80;99.90;;;;;;5039719;28;20385;-63
2023/03/02 00:18:13;;;;;;;56.15;23.65;;;2.80;99.90;;;;;;5047833;28;20033;-63
2023/03/02 00:20:39;;;;;;;59.15;25.17;;;2.80;99.90;;;;;;5049114;28;20037;-63
2023/03/02 00:23:04;;;;;;;53.67;24.13;;;2.80;99.90;;;;;;5041380;28;20053;-63
2023/03/02 00:25:30;;;;;;;51.97;23.70;;;2.90;99.90;;;;;;5045558;28;20115;-63
2023/03/02 00:27:55;;;;;;;56.72;23.67;;;2.90;99.90;;;;;;5050002;28;20090;-63
2023/03/02 00:30:21;;;;;;;50.97;22.02;;;2.90;99.90;;;;;;5032404;28;20029;-63
2023/03/02 00:32:47;;;;;;;53.17;22.75;;;2.90;99.90;;;;;;5042644;28;20095;-63
2023/03/02 00:35:12;;;;;;;53.75;22.63;;;2.90;99.90;;;;;;5043091;28;20033;-65
2023/03/02 00:37:38;;;;;;;50.47;23.83;;;2.90;99.90;;;;;;5048058;28;20065;-63
2023/03/02 00:40:05;;;;;;;52.78;22.35;;;2.80;99.90;;;;;;5053501;28;20087;-63
2023/03/02 00:42:32;;;;;;;50.83;23.83;;;2.80;99.90;;;;;;5053455;28;20049;-63
2023/03/02 00:45:00;;;;;;;48.97;21.45;;;2.90;99.90;;;;;;5044313;28;20042;-63
2023/03/02 00:47:27;;;;;;;51.72;21.90;;;2.90;99.90;;;;;;5034062;28;20075;-62
2023/03/02 00:49:53;;;;;;;42.22;19.98;;;2.80;99.90;;;;;;5035135;28;20046;-64
2023/03/02 00:52:19;;;;;;;47.00;20.30;;;2.90;99.90;;;;;;5034440;28;20044;-63
2023/03/02 00:54:44;;;;;;;48.10;20.70;;;2.90;99.90;;;;;;5038773;28;20043;-65
2023/03/02 00:57:10;;;;;;;44.40;20.00;;;2.90;99.90;;;;;;5035266;28;20041;-64
2023/03/02 00:59:39;;;;;;;46.03;21.13;;;2.90;99.90;;;;;;5034397;28;20061;-64
2023/03/02 01:02:05;;;;;;;48.50;20.52;;;2.80;99.90;;;;;;5031314;28;20056;-62
2023/03/02 01:04:40;;;;;;;46.08;21.10;;;2.80;99.90;;;;;;5033008;28;20588;-63
2023/03/02 01:07:12;;;;;;;43.53;20.40;;;2.80;99.90;;;;;;5016882;28;20116;-63
2023/03/02 01:09:39;;;;;;;46.03;19.83;;;2.70;99.90;;;;;;5038727;28;20044;-64
2023/03/02 01:12:09;;;;;;;45.50;19.42;;;2.70;99.90;;;;;;5052025;28;20029;-62
2023/03/02 01:14:36;;;;;;;44.45;20.67;;;2.70;99.90;;;;;;5051422;28;20132;-63
2023/03/02 01:17:03;;;;;;;45.72;20.13;;;2.70;99.90;;;;;;5042408;28;20041;-63
2023/03/02 01:19:29;;;;;;;50.30;21.77;;;2.70;99.90;;;;;;5051766;28;20056;-63
2023/03/02 01:21:55;;;;;;;48.35;21.38;;;2.70;99.90;;;;;;5053903;28;20045;-63
2023/03/02 01:24:20;;;;;;;44.13;20.42;;;2.60;99.90;;;;;;5051396;28;20037;-62
2023/03/02 01:26:46;;;;;;;45.40;19.48;;;2.60;99.90;;;;;;5050991;28;20044;-64
2023/03/02 01:29:11;;;;;;;48.05;21.50;;;2.60;99.90;;;;;;5034100;28;20038;-62
2023/03/02 01:31:37;;;;;;;50.08;21.85;;;2.50;99.90;;;;;;5042016;28;20038;-65
2023/03/02 01:34:03;;;;;;;50.90;21.60;;;2.50;99.90;;;;;;5033649;28;20049;-62
2023/03/02 01:36:29;;;;;;;50.80;21.92;;;2.40;99.90;;;;;;5033558;28;20120;-64
2023/03/02 01:38:55;;;;;;;51.47;22.23;;;2.40;99.90;;;;;;5034585;28;20049;-63
2023/03/02 01:41:20;;;;;;;49.40;22.25;;;2.40;99.90;;;;;;5033415;28;20420;-63
2023/03/02 01:43:46;;;;;;;49.35;22.15;;;2.40;99.90;;;;;;5049810;28;20037;-62
2023/03/02 01:46:27;;;;;;;51.53;21.98;;;2.40;99.90;;;;;;5031384;28;20037;-64
2023/03/02 01:49:00;;;;;;;48.65;21.10;;;2.40;99.90;;;;;;5033009;28;20493;-64
2023/03/02 01:51:29;;;;;;;48.28;21.25;;;2.40;99.90;;;;;;5047947;28;20037;-63
2023/03/02 01:54:01;;;;;;;50.08;21.42;;;2.40;99.90;;;;;;5044511;28;20053;-63
2023/03/02 01:56:30;;;;;;;53.67;22.25;;;2.40;99.90;;;;;;5032816;28;20626;-62
2023/03/02 01:59:03;;;;;;;49.65;20.65;;;2.40;99.90;;;;;;5037153;28;20480;-63
2023/03/02 02:01:30;;;;;;;51.38;22.42;;;2.40;99.90;;;;;;5047738;28;20114;-64
2023/03/02 02:03:55;;;;;;;49.53;21.38;;;2.40;99.90;;;;;;5052094;28;20087;-63
2023/03/02 02:06:25;;;;;;;49.88;21.63;;;2.20;99.90;;;;;;5039546;28;20037;-64
2023/03/02 02:08:52;;;;;;;42.70;20.33;;;2.30;99.90;;;;;;5032684;28;20033;-64
2023/03/02 02:11:18;;;;;;;46.10;21.30;;;2.20;99.90;;;;;;5028881;28;20040;-63
2023/03/02 02:13:47;;;;;;;49.42;21.63;;;2.20;99.90;;;;;;5039111;28;20083;-63
2023/03/02 02:16:13;;;;;;;45.88;20.00;;;2.20;99.90;;;;;;5040885;28;20424;-64
2023/03/02 02:18:40;;;;;;;48.30;21.20;;;2.20;99.90;;;;;;5032569;28;20038;-62
2023/03/02 02:21:07;;;;;;;51.58;21.27;;;2.20;99.90;;;;;;5048781;28;20507;-64
2023/03/02 02:23:44;;;;;;;51.60;20.60;;;2.20;99.90;;;;;;5046075;28;20464;-62
2023/03/02 02:26:17;;;;;;;55.25;22.70;;;2.20;99.90;;;;;;5039192;28;20073;-62
2023/03/02 02:28:56;;;;;;;52.58;21.42;;;2.20;99.90;;;;;;5032075;28;20037;-63
2023/03/02 02:31:34;;;;;;;56.90;23.27;;;2.20;99.90;;;;;;5039851;28;20483;-63
2023/03/02 02:34:13;;;;;;;58.28;23.05;;;2.20;99.90;;;;;;5049670;28;20062;-63
2023/03/02 02:36:43;;;;;;;57.47;23.45;;;2.20;99.90;;;;;;5048239;28;20041;-63
2023/03/02 02:39:17;;;;;;;52.60;22.55;;;2.10;99.90;;;;;;5052365;28;20040;-63
2023/03/02 02:41:46;;;;;;;60.38;24.27;;;2.10;99.90;;;;;;5024413;28;20049;-62
2023/03/02 02:44:14;;;;;;;55.60;22.77;;;2.10;99.90;;;;;;5051316;28;20076;-63
2023/03/02 02:46:40;;;;;;;45.63;18.92;;;2.10;99.90;;;;;;5018413;28;20390;-63
2023/03/02 02:49:19;;;;;;;48.72;21.30;;;2.00;99.90;;;;;;5051431;28;20033;-63
2023/03/02 02:51:45;;;;;;;48.42;20.63;;;2.00;99.90;;;;;;5039027;28;20128;-65
2023/03/02 02:54:16;;;;;;;46.95;19.55;;;2.00;99.90;;;;;;5052392;28;20124;-62
2023/03/02 02:56:43;;;;;;;45.28;19.63;;;2.00;99.90;;;;;;5045939;28;20045;-65
2023/03/02 02:59:27;;;;;;;43.33;18.60;;;2.00;99.90;;;;;;5031855;28;20049;-63
2023/03/02 03:01:54;;;;;;;45.22;19.50;;;2.10;99.90;;;;;;5031754;28;20045;-62
2023/03/02 03:04:24;;;;;;;49.97;19.55;;;2.10;99.90;;;;;;5051330;28;20107;-63
2023/03/02 03:06:57;;;;;;;47.90;19.88;;;2.10;99.90;;;;;;5046514;28;20038;-63
2023/03/02 03:09:23;;;;;;;45.88;20.85;;;2.00;99.90;;;;;;5034410;28;20064;-63
2023/03/02 03:11:52;;;;;;;45.17;18.80;;;2.00;99.90;;;;;;5051331;28;20043;-63
2023/03/02 03:14:28;;;;;;;52.90;19.58;;;1.90;99.90;;;;;;5018822;28;20382;-64
2023/03/02 03:16:53;;;;;;;57.17;18.77;;;1.90;99.90;;;;;;5046089;28;20045;-63
2023/03/02 03:19:29;;;;;;;45.72;19.42;;;1.90;99.90;;;;;;5035069;28;20048;-63
2023/03/02 03:21:57;;;;;;;48.30;18.67;;;1.90;99.90;;;;;;5037613;28;20408;-62
2023/03/02 03:24:24;;;;;;;44.38;19.15;;;1.80;99.90;;;;;;5046934;28;20049;-64
2023/03/02 03:26:50;;;;;;;49.80;19.23;;;1.80;99.90;;;;;;5034594;28;20083;-64
2023/03/02 03:29:17;;;;;;;46.45;19.17;;;1.80;99.90;;;;;;5041734;28;20049;-64
2023/03/02 03:31:43;;;;;;;52.30;19.80;;;1.80;99.90;;;;;;5037764;28;20049;-65
2023/03/02 03:34:09;;;;;;;49.55;19.95;;;1.80;99.90;;;;;;5039572;28;20048;-62
2023/03/02 03:36:35;;;;;;;52.42;19.55;;;1.70;99.90;;;;;;5046311;28;20071;-63
2023/03/02 03:39:03;;;;;;;51.50;19.35;;;1.80;99.90;;;;;;5040042;28;20048;-62
2023/03/02 03:41:28;;;;;;;73.15;21.63;;;1.80;99.90;;;;;;5035854;28;20116;-63
2023/03/02 03:43:54;;;;;;;89.00;22.20;;;1.80;99.90;;;;;;5034295;28;20124;-63
2023/03/02 03:46:20;;;;;;;55.75;20.73;;;1.70;99.90;;;;;;5045236;28;20037;-63
2023/03/02 03:48:46;;;;;;;56.10;20.70;;;1.70;99.90;;;;;;5047131;28;20041;-63
2023/03/02 03:51:11;;;;;;;70.00;21.55;;;1.70;99.90;;;;;;5046007;28;20381;-63
2023/03/02 03:53:37;;;;;;;70.70;21.50;;;1.70;99.90;;;;;;5045022;28;20041;-62
2023/03/02 03:56:03;;;;;;;59.28;22.25;;;1.70;99.90;;;;;;5049211;28;20462;-64
2023/03/02 03:58:30;;;;;;;88.93;23.27;;;1.70;99.90;;;;;;5049034;28;20462;-63
2023/03/02 04:00:56;;;;;;;67.20;21.27;;;1.70;99.90;;;;;;5048069;28;20049;-62
2023/03/02 04:03:22;;;;;;;58.70;21.70;;;1.70;99.90;;;;;;5046899;28;20033;-63
2023/03/02 04:05:47;;;;;;;59.40;19.90;;;1.70;99.90;;;;;;5041125;28;20180;-64
2023/03/02 04:08:14;;;;;;;97.72;22.40;;;1.70;99.90;;;;;;5049381;28;20392;-63
2023/03/02 04:10:40;;;;;;;75.60;21.45;;;1.70;99.90;;;;;;5050224;28;20481;-64
2023/03/02 04:13:06;;;;;;;69.78;21.88;;;1.70;99.90;;;;;;5051451;28;20041;-63
2023/03/02 04:15:32;;;;;;;71.10;22.35;;;1.60;99.90;;;;;;5043811;28;20052;-64
2023/03/02 04:17:57;;;;;;;54.67;20.67;;;1.70;99.90;;;;;;5039130;28;20480;-62
2023/03/02 04:20:24;;;;;;;71.97;22.17;;;1.70;99.90;;;;;;5036417;28;20046;-62
2023/03/02 04:22:53;;;;;;;56.35;22.05;;;1.60;99.90;;;;;;5039547;28;20044;-62
2023/03/02 04:25:22;;;;;;;62.72;21.13;;;1.70;99.90;;;;;;5036662;28;20041;-63
2023/03/02 04:27:49;;;;;;;75.93;22.70;;;1.70;99.90;;;;;;5038135;28;20041;-63
2023/03/02 04:30:18;;;;;;;71.00;23.23;;;1.70;99.90;;;;;;5043857;28;20045;-62
2023/03/02 04:32:43;;;;;;;64.10;21.80;;;1.60;99.90;;;;;;5051977;28;20118;-63
2023/03/02 04:35:11;;;;;;;64.88;21.80;;;1.60;99.90;;;;;;5048097;28;20493;-63
2023/03/02 04:37:37;;;;;;;66.80;22.27;;;1.60;99.90;;;;;;5043052;28;20099;-62
2023/03/02 04:40:03;;;;;;;87.78;23.38;;;1.50;99.90;;;;;;5040590;28;20046;-62
2023/03/02 04:42:29;;;;;;;80.18;22.67;;;1.50;99.90;;;;;;5049158;28;20045;-63
2023/03/02 04:44:54;;;;;;;64.60;22.02;;;1.50;99.90;;;;;;5046970;28;20047;-65
2023/03/02 04:47:20;;;;;;;84.30;22.10;;;1.40;99.90;;;;;;5049842;28;20185;-63
2023/03/02 04:49:46;;;;;;;75.30;23.75;;;1.40;99.90;;;;;;5047427;28;20037;-64
2023/03/02 04:52:11;;;;;;;117.22;28.60;;;1.40;99.90;;;;;;5053234;28;20049;-63
2023/03/02 04:54:37;;;;;;;164.80;30.50;;;1.40;99.90;;;;;;5051608;28;20083;-63
2023/03/02 04:57:03;;;;;;;82.93;25.23;;;1.30;99.90;;;;;;5041024;28;20045;-62
2023/03/02 04:59:28;;;;;;;60.75;22.85;;;1.30;99.90;;;;;;5045208;28;20052;-64
2023/03/02 05:01:57;;;;;;;76.43;24.35;;;1.30;99.90;;;;;;5049573;28;20443;-62
2023/03/02 05:04:22;;;;;;;95.32;27.02;;;1.30;99.90;;;;;;5045344;28;20052;-63
2023/03/02 05:06:48;;;;;;;71.05;23.45;;;1.30;99.90;;;;;;5017611;28;20124;-63
2023/03/02 05:09:14;;;;;;;96.55;25.58;;;1.30;99.90;;;;;;5048920;28;20087;-63
2023/03/02 05:11:40;;;;;;;84.63;26.35;;;1.30;99.90;;;;;;5048318;28;20041;-64
2023/03/02 05:14:07;;;;;;;120.35;28.23;;;1.40;99.90;;;;;;5050697;28;20107;-62
2023/03/02 05:16:35;;;;;;;82.50;27.05;;;1.40;99.90;;;;;;5051056;28;20032;-62
2023/03/02 05:19:03;;;;;;;76.30;24.65;;;1.40;99.90;;;;;;5041330;28;20394;-62
2023/03/02 05:21:29;;;;;;;82.05;26.70;;;1.40;99.90;;;;;;5033053;28;20041;-64
2023/03/02 05:23:55;;;;;;;86.15;26.42;;;1.30;99.90;;;;;;5043663;28;20128;-62
2023/03/02 05:26:21;;;;;;;79.65;26.33;;;1.30;99.90;;;;;;5028737;28;20041;-63
2023/03/02 05:28:46;;;;;;;95.97;26.95;;;1.40;99.90;;;;;;5035179;28;20037;-63
2023/03/02 05:31:30;;;;;;;85.30;26.02;;;1.30;99.90;;;;;;5040752;28;20619;-64
2023/03/02 05:33:55;;;;;;;102.43;26.35;;;1.30;99.90;;;;;;5040113;28;20435;-62
2023/03/02 05:36:21;;;;;;;80.00;24.02;;;1.30;99.90;;;;;;5053123;28;20156;-62
2023/03/02 05:38:47;;;;;;;100.95;27.27;;;1.30;99.90;;;;;;5036454;28;20638;-65
2023/03/02 05:41:13;;;;;;;83.57;26.42;;;1.30;99.90;;;;;;5048218;28;20100;-63
2023/03/02 05:43:38;;;;;;;103.40;28.45;;;1.30;99.90;;;;;;5041754;28;20534;-62
2023/03/02 05:46:04;;;;;;;91.63;26.52;;;1.30;99.90;;;;;;5030468;28;20033;-63
2023/03/02 05:48:29;;;;;;;96.43;27.38;;;1.30;99.90;;;;;;5037974;28;20037;-63
2023/03/02 05:50:56;;;;;;;117.63;28.23;;;1.30;99.90;;;;;;5043477;28;20033;-63
2023/03/02 05:53:22;;;;;;;102.32;27.67;;;1.40;99.90;;;;;;5051106;28;20033;-64
2023/03/02 05:55:48;;;;;;;141.32;30.38;;;1.40;99.90;;;;;;5050323;28;20480;-62
2023/03/02 05:58:16;;;;;;;114.30;29.58;;;1.30;99.90;;;;;;5043267;28;20485;-63
2023/03/02 06:00:42;;;;;;;84.07;26.13;;;1.30;99.90;;;;;;5029619;28;20057;-63
2023/03/02 06:03:08;;;;;;;111.72;28.88;;;1.40;99.90;;;;;;5033096;28;20038;-64
2023/03/02 06:05:34;;;;;;;97.75;26.30;;;1.40;99.90;;;;;;5048725;28;20059;-63
2023/03/02 06:08:00;;;;;;;112.07;27.77;;;1.40;99.90;;;;;;5049693;28;20818;-63
2023/03/02 06:10:26;;;;;;;96.05;27.23;;;1.40;99.90;;;;;;5036046;28;20052;-63
2023/03/02 06:12:51;;;;;;;88.45;26.17;;;1.40;99.90;;;;;;5034803;28;20488;-63
2023/03/02 06:15:18;;;;;;;85.75;24.70;;;1.40;99.90;;;;;;5037502;28;20037;-63
2023/03/02 06:17:43;;;;;;;84.72;24.98;;;1.40;99.90;;;;;;5049575;28;20090;-63
2023/03/02 06:20:09;;;;;;;93.93;25.20;;;1.40;99.90;;;;;;5051735;28;20041;-63
2023/03/02 06:22:40;;;;;;;63.95;22.90;;;1.40;99.90;;;;;;5050332;28;20047;-64
2023/03/02 06:25:08;;;;;;;68.38;21.27;;;1.40;99.90;;;;;;5035252;28;20125;-63
2023/03/02 06:27:33;;;;;;;55.95;20.27;;;1.40;99.90;;;;;;5044269;28;20095;-63
2023/03/02 06:29:59;;;;;;;59.90;19.58;;;1.40;99.90;;;;;;5030790;28;20040;-66
2023/03/02 06:32:25;;;;;;;86.15;22.50;;;1.30;99.90;;;;;;5040611;28;20040;-63
2023/03/02 06:34:50;;;;;;;65.47;21.38;;;1.30;99.90;;;;;;5049777;28;20568;-64
2023/03/02 06:37:16;;;;;;;66.13;20.92;;;1.30;99.90;;;;;;5048782;28;20049;-62
2023/03/02 06:39:41;;;;;;;71.47;22.15;;;1.30;99.90;;;;;;5042465;28;20463;-63
2023/03/02 06:42:07;;;;;;;68.97;21.02;;;1.30;99.90;;;;;;5030984;28;20103;-64
2023/03/02 06:44:32;;;;;;;62.05;20.45;;;1.40;99.90;;;;;;5038798;28;20065;-64
2023/03/02 06:46:58;;;;;;;64.18;21.90;;;1.40;99.90;;;;;;5033299;28;20072;-63
2023/03/02 06:49:23;;;;;;;57.40;19.52;;;1.40;99.90;;;;;;5031504;28;20040;-63
2023/03/02 06:51:49;;;;;;;60.65;21.42;;;1.40;99.90;;;;;;5039481;28;20048;-65
2023/03/02 06:54:14;;;;;;;54.50;20.25;;;1.30;99.90;;;;;;5034419;28;20112;-63
2023/03/02 06:56:40;;;;;;;58.10;21.25;;;1.30;99.90;;;;;;5019653;28;20102;-65
2023/03/02 06:59:05;;;;;;;66.32;21.38;;;1.30;99.90;;;;;;5051414;28;20053;-62
2023/03/02 07:01:31;;;;;;;70.20;20.45;;;1.40;99.90;;;;;;5040316;28;20753;-63
2023/03/02 07:03:57;;;;;;;62.75;21.02;;;1.40;99.90;;;;;;5042850;28;20041;-62
2023/03/02 07:06:22;;;;;;;70.57;20.13;;;1.40;99.90;;;;;;5020463;28;20128;-64
2023/03/02 07:08:48;;;;;;;62.35;20.17;;;1.40;99.90;;;;;;5035518;28;20508;-63
2023/03/02 07:11:13;;;;;;;61.35;20.25;;;1.40;99.90;;;;;;5042032;28;20033;-65
2023/03/02 07:13:39;;;;;;;56.15;20.23;;;1.40;99.90;;;;;;5037070;28;20124;-63
2023/03/02 07:16:09;;;;;;;58.53;20.38;;;1.40;99.90;;;;;;5045067;28;20435;-64
2023/03/02 07:18:35;;;;;;;;;;;1.40;99.90;;;;;;5037670;28;20077;-63
2023/03/02 07:21:00;;;;;;;59.97;18.38;;;1.50;99.90;;;;;;5040352;28;19966;-62
2023/03/02 07:23:26;;;;;;;55.67;19.83;;;1.50;99.90;;;;;;5040949;28;20086;-63
2023/03/02 07:25:52;;;;;;;71.03;19.02;;;1.40;99.90;;;;;;5042183;28;20060;-64
2023/03/02 07:28:17;;;;;;;59.63;19.05;;;1.50;99.90;;;;;;5047871;28;20041;-65
2023/03/02 07:30:43;;;;;;;51.67;17.30;;;1.50;99.90;;;;;;5046757;28;20439;-62
2023/03/02 07:33:08;;;;;;;63.35;18.33;;;1.50;99.90;;;;;;5048639;28;20379;-64
2023/03/02 07:35:34;;;;;;;50.17;17.23;;;1.50;99.90;;;;;;5035558;28;20029;-66
2023/03/02 07:37:59;;;;;;;42.92;16.67;;;1.50;99.90;;;;;;5031217;28;20079;-63
2023/03/02 07:40:25;;;;;;;45.28;16.77;;;1.50;99.90;;;;;;5040429;28;20068;-64
2023/03/02 07:42:50;;;;;;;50.00;18.50;;;1.50;99.90;;;;;;5029511;28;20041;-66
2023/03/02 07:45:19;;;;;;;52.17;18.75;;;1.50;99.90;;;;;;5029844;28;20041;-63
2023/03/02 07:47:44;;;;;;;80.43;20.30;;;1.50;99.90;;;;;;5012955;28;20056;-63
2023/03/02 07:50:10;;;;;;;44.95;18.52;;;1.40;99.90;;;;;;5031401;28;20052;-63
2023/03/02 07:52:36;;;;;;;59.42;20.15;;;1.50;99.90;;;;;;5038243;28;20063;-63
2023/03/02 07:55:01;;;;;;;51.50;18.67;;;1.50;99.90;;;;;;5033973;28;20056;-64
2023/03/02 07:57:27;;;;;;;58.67;19.23;;;1.40;99.90;;;;;;5043272;28;20051;-62
2023/03/02 07:59:52;;;;;;;86.75;19.90;;;1.30;99.90;;;;;;5029814;28;20097;-67
2023/03/02 08:02:19;;;;;;;64.03;20.38;;;1.40;99.90;;;;;;5030926;28;20052;-63
2023/03/02 08:04:45;;;;;;;43.22;16.92;;;1.40;99.90;;;;;;5051393;28;20057;-63
2023/03/02 08:07:10;;;;;;;48.97;19.20;;;1.40;99.90;;;;;;5050625;28;20039;-64
2023/03/02 08:09:38;;;;;;;53.70;19.80;;;1.40;99.90;;;;;;5033943;28;20049;-64
2023/03/02 08:12:04;;;;;;;50.25;20.83;;;1.50;99.90;;;;;;5041951;28;20112;-62
2023/03/02 08:14:30;;;;;;;60.83;22.10;;;1.60;99.90;;;;;;5036377;28;20041;-65
2023/03/02 08:16:55;;;;;;;73.28;21.33;;;1.60;99.90;;;;;;5033689;28;20041;-64
2023/03/02 08:19:21;;;;;;;59.13;22.00;;;1.70;99.90;;;;;;5028988;28;20052;-63
2023/03/02 08:21:46;;;;;;;60.30;21.05;;;1.70;99.90;;;;;;5038333;28;20049;-65
2023/03/02 08:24:12;;;;;;;61.15;20.35;;;1.80;99.90;;;;;;5036058;28;20117;-62
2023/03/02 08:26:38;;;;;;;49.90;19.30;;;1.80;99.90;;;;;;5038187;28;20045;-62
2023/03/02 08:29:04;;;;;;;58.60;20.65;;;1.90;99.90;;;;;;5031642;28;20126;-63
2023/03/02 08:31:30;;;;;;;50.60;19.55;;;1.90;99.90;;;;;;5039004;28;20038;-64
2023/03/02 08:33:58;;;;;;;129.75;25.58;;;1.90;99.90;;;;;;5036700;28;20048;-62
2023/03/02 08:36:24;;;;;;;47.33;19.73;;;1.90;99.90;;;;;;5031445;28;20500;-63
2023/03/02 08:38:50;;;;;;;59.33;20.17;;;1.90;99.90;;;;;;5047869;28;20033;-62
2023/03/02 08:41:20;;;;;;;57.67;19.58;;;2.00;99.90;;;;;;5034653;28;20126;-64
2023/03/02 08:43:47;;;;;;;60.72;20.73;;;2.00;99.90;;;;;;5047698;28;20052;-63
2023/03/02 08:46:15;;;;;;;53.83;18.75;;;2.10;99.90;;;;;;5035578;28;20441;-64
2023/03/02 08:48:40;;;;;;;54.25;19.15;;;2.10;99.90;;;;;;5043612;28;20175;-65
2023/03/02 08:51:15;;;;;;;50.92;19.70;;;2.10;99.90;;;;;;5050624;28;20436;-62
2023/03/02 08:53:43;;;;;;;45.22;19.35;;;2.10;99.90;;;;;;5042452;28;20049;-62
2023/03/02 08:56:31;;;;;;;47.25;18.92;;;2.20;99.90;;;;;;5035398;28;20095;-63
2023/03/02 08:59:00;;;;;;;50.35;17.90;;;2.30;99.90;;;;;;5041111;28;20063;-64
2023/03/02 09:01:28;;;;;;;49.13;19.48;;;2.30;99.90;;;;;;5045538;28;20039;-63
2023/03/02 09:03:56;;;;;;;47.72;19.10;;;2.30;99.90;;;;;;5039509;28;20090;-62
2023/03/02 09:06:22;;;;;;;50.40;19.67;;;2.40;99.90;;;;;;5039257;28;20037;-63
2023/03/02 09:08:48;;;;;;;44.90;18.33;;;2.40;99.90;;;;;;5053704;28;20043;-63
2023/03/02 09:11:14;;;;;;;50.50;19.65;;;2.40;99.90;;;;;;5052706;28;20037;-63
2023/03/02 09:13:40;;;;;;;44.90;18.38;;;2.40;99.90;;;;;;5044614;28;20033;-63
2023/03/02 09:16:07;;;;;;;48.95;18.63;;;2.40;99.90;;;;;;5043511;28;20132;-64
2023/03/02 09:18:33;;;;;;;45.38;17.60;;;2.50;99.90;;;;;;5053789;28;20040;-63
2023/03/02 09:20:59;;;;;;;55.15;19.73;;;2.50;99.90;;;;;;5053291;28;20056;-63
2023/03/02 09:23:25;;;;;;;46.15;17.58;;;2.50;99.90;;;;;;5043478;28;20041;-62
2023/03/02 09:25:52;;;;;;;38.38;17.08;;;2.60;99.90;;;;;;5032072;28;20128;-63
2023/03/02 09:28:17;;;;;;;44.30;18.63;;;2.70;99.90;;;;;;5035632;28;20366;-63
2023/03/02 09:30:56;;;;;;;38.25;17.35;;;2.80;99.90;;;;;;5018723;28;20057;-63
2023/03/02 09:33:22;;;;;;;41.25;17.83;;;2.80;99.90;;;;;;5043537;28;20044;-62
2023/03/02 09:35:47;;;;;;;36.00;17.63;;;2.80;99.90;;;;;;5046325;28;20121;-63
2023/03/02 09:38:17;;;;;;;37.45;16.42;;;2.80;99.90;;;;;;5050579;28;20124;-64
2023/03/02 09:40:50;;;;;;;41.33;17.13;;;2.80;99.90;;;;;;5045910;28;20037;-62
2023/03/02 09:43:44;;;;;;;38.35;17.25;;;2.90;99.90;;;;;;5044186;28;20095;-63
2023/03/02 09:46:36;;;;;;;40.08;16.58;;;2.90;99.90;;;;;;5033835;28;20064;-66
2023/03/02 09:49:14;;;;;;;37.47;16.38;;;2.90;99.90;;;;;;5033872;28;20048;-63
2023/03/02 09:51:44;;;;;;;41.53;16.83;;;3.00;99.90;;;;;;5051154;28;20041;-65
2023/03/02 09:54:13;;;;;;;36.28;15.93;;;3.00;99.90;;;;;;5032779;28;20141;-65
2023/03/02 09:56:46;;;;;;;36.42;15.75;;;3.10;99.90;;;;;;5050992;28;20414;-64
2023/03/02 09:59:25;;;;;;;37.38;15.75;;;3.00;99.90;;;;;;5051601;28;20063;-64
2023/03/02 10:02:24;;;;;;;37.78;16.85;;;3.10;99.90;;;;;;5045479;28;20037;-64
2023/03/02 10:04:53;;;;;;;35.67;15.90;;;3.20;99.90;;;;;;5053189;28;20052;-63
2023/03/02 10:07:30;;;;;;;35.08;15.38;;;3.10;99.90;;;;;;5051497;28;20063;-63
2023/03/02 10:10:02;;;;;;;36.63;15.85;;;3.30;99.90;;;;;;5041369;28;20033;-63
2023/03/02 10:12:43;;;;;;;43.30;17.67;;;3.20;99.90;;;;;;5050179;28;20043;-64
2023/03/02 10:15:12;;;;;;;38.92;16.13;;;3.40;99.90;;;;;;5042865;28;20041;-63
2023/03/02 10:18:11;;;;;;;42.50;17.13;;;3.40;99.90;;;;;;5052594;28;20095;-63
2023/03/02 10:20:50;;;;;;;37.20;17.10;;;3.20;99.90;;;;;;5052568;28;20044;-63
2023/03/02 10:23:29;;;;;;;40.35;18.45;;;3.30;99.90;;;;;;5049500;28;20111;-66
2023/03/02 10:26:07;;;;;;;39.67;17.17;;;3.30;99.90;;;;;;5048250;28;20519;-66
2023/03/02 10:28:40;;;;;;;38.13;16.17;;;3.30;99.90;;;;;;5032121;28;20124;-63
2023/03/02 10:31:17;;;;;;;37.83;17.15;;;3.30;99.90;;;;;;5033101;28;20098;-64
2023/03/02 10:33:42;;;;;;;36.85;16.45;;;3.40;99.90;;;;;;5034434;28;20077;-63
2023/03/02 10:36:21;;;;;;;44.50;16.35;;;3.30;99.90;;;;;;5033706;28;20060;-64
2023/03/02 10:38:47;;;;;;;36.80;16.33;;;3.40;99.90;;;;;;5032206;28;20132;-63
2023/03/02 10:41:25;;;;;;;39.30;16.90;;;3.50;99.90;;;;;;5036038;28;20442;-65
2023/03/02 10:43:56;;;;;;;35.08;15.77;;;3.60;99.90;;;;;;5051011;28;20065;-63
2023/03/02 10:46:21;;;;;;;36.15;15.38;;;3.60;99.90;;;;;;5048690;28;20043;-65
2023/03/02 10:48:50;;;;;;;39.58;16.50;;;3.60;99.90;;;;;;5044365;28;20117;-64
2023/03/02 10:51:34;;;;;;;38.42;16.73;;;3.70;99.90;;;;;;5042690;28;20495;-63
2023/03/02 10:54:10;;;;;;;36.28;16.27;;;3.90;99.90;;;;;;5042787;28;20072;-66
2023/03/02 10:56:36;;;;;;;37.78;15.52;;;3.90;99.90;;;;;;5038533;28;20463;-63
2023/03/02 10:59:24;;;;;;;38.63;16.27;;;3.90;99.90;;;;;;5044016;28;20053;-63
2023/03/02 11:02:13;;;;;;;41.25;16.48;;;4.00;99.90;;;;;;5037973;28;20410;-64
2023/03/02 11:04:40;;;;;;;33.28;15.00;;;4.00;99.90;;;;;;5041329;28;20049;-63
2023/03/02 11:07:11;;;;;;;34.05;14.90;;;4.10;99.90;;;;;;5034334;28;20398;-64
2023/03/02 11:09:37;;;;;;;44.40;17.27;;;4.10;99.90;;;;;;5031359;28;20038;-63
2023/03/02 11:12:03;;;;;;;41.17;16.75;;;4.20;99.90;;;;;;5008513;28;20132;-64
2023/03/02 11:14:29;;;;;;;38.78;17.63;;;4.20;99.90;;;;;;5009353;28;20049;-63
2023/03/02 11:16:55;;;;;;;36.40;17.42;;;4.20;99.90;;;;;;5013461;28;20045;-63
2023/03/02 11:19:36;;;;;;;35.30;16.70;;;4.10;99.90;;;;;;5049916;28;20087;-65
2023/03/02 11:22:25;;;;;;;37.22;16.33;;;4.30;99.90;;;;;;5034950;28;20052;-64
2023/03/02 11:24:55;;;;;;;32.47;16.00;;;4.30;99.90;;;;;;5042920;28;20642;-65
2023/03/02 11:27:26;;;;;;;35.13;15.38;;;4.30;99.90;;;;;;5037066;28;20044;-64
2023/03/02 11:30:05;;;;;;;37.58;17.45;;;4.40;99.90;;;;;;5031200;28;20052;-67
2023/03/02 11:32:44;;;;;;;41.63;17.15;;;4.30;99.90;;;;;;5038050;28;20096;-64
2023/03/02 11:35:20;;;;;;;37.75;16.73;;;4.40;99.90;;;;;;5046041;28;20065;-65
2023/03/02 11:37:51;;;;;;;40.75;17.30;;;4.40;99.90;;;;;;5049722;28;20048;-63
2023/03/02 11:40:54;;;;;;;40.90;16.98;;;4.50;99.90;;;;;;5036615;28;20088;-63
2023/03/02 11:43:20;;;;;;;39.80;17.15;;;4.60;99.90;;;;;;5047050;28;20095;-64
2023/03/02 11:45:50;;;;;;;39.88;18.42;;;4.60;99.90;;;;;;5041682;28;20045;-63
2023/03/02 11:48:27;;;;;;;36.47;18.00;;;4.70;99.90;;;;;;5031598;28;20033;-63
2023/03/02 11:50:55;;;;;;;38.00;17.75;;;4.70;99.90;;;;;;5033473;28;20095;-64
2023/03/02 11:53:24;;;;;;;34.17;16.40;;;4.70;99.90;;;;;;5033040;28;20033;-66
2023/03/02 11:55:50;;;;;;;40.10;17.73;;;4.60;99.90;;;;;;5044117;28;20036;-63
2023/03/02 11:58:23;;;;;;;37.97;16.23;;;4.80;99.90;;;;;;5032721;28;20496;-64
2023/03/02 12:00:49;;;;;;;39.13;16.80;;;4.80;99.90;;;;;;5028132;28;20469;-64
2023/03/02 12:03:15;;;;;;;36.63;16.75;;;4.90;99.90;;;;;;5042596;28;20041;-66
2023/03/02 12:05:43;;;;;;;42.65;18.15;;;4.90;99.90;;;;;;5048373;28;20562;-65
2023/03/02 12:08:18;;;;;;;35.83;15.98;;;5.00;99.90;;;;;;5047096;28;20063;-63
2023/03/02 12:10:58;;;;;;;35.33;16.02;;;5.10;99.90;;;;;;5032841;28;20551;-63
2023/03/02 12:13:38;;;;;;;34.67;16.38;;;5.20;99.90;;;;;;5044266;28;20489;-64
2023/03/02 12:16:23;;;;;;;;;;;5.30;99.90;;;;;;5030248;28;20424;-66
2023/03/02 12:18:52;;;;;;;33.65;15.60;;;5.20;99.90;;;;;;5032100;28;19917;-63
2023/03/02 12:21:19;;;;;;;35.40;15.93;;;5.30;99.90;;;;;;5029725;28;20037;-64
2023/03/02 12:23:48;;;;;;;36.08;16.20;;;5.40;99.90;;;;;;5033138;28;20396;-64
2023/03/02 12:26:20;;;;;;;33.55;16.08;;;5.30;99.90;;;;;;5045955;28;20037;-64
2023/03/02 12:29:09;;;;;;;33.70;15.10;;;5.40;99.90;;;;;;5037833;28;20486;-64
2023/03/02 12:31:46;;;;;;;29.20;13.73;;;5.40;99.90;;;;;;5024540;28;20721;-64
2023/03/02 12:34:34;;;;;;;30.88;13.48;;;5.50;99.90;;;;;;5035991;28;20056;-64
2023/03/02 12:37:20;;;;;;;31.38;13.68;;;5.40;99.90;;;;;;5046643;28;20056;-64
2023/03/02 12:40:10;;;;;;;31.98;14.40;;;5.40;99.90;;;;;;5045520;28;20049;-64
2023/03/02 12:42:47;;;;;;;29.40;13.13;;;5.50;99.90;;;;;;5043034;28;20515;-66
2023/03/02 12:45:38;;;;;;;30.08;13.88;;;5.50;99.90;;;;;;5038047;28;20048;-63
2023/03/02 12:48:37;;;;;;;27.67;13.05;;;5.60;99.90;;;;;;5043612;28;20047;-63